Local Weather Ingen bokad jour idag Thursday 21st of February
Flygplats METAR TAF
Airport METAR TAF
ESSL - Linköping211050Z 12012KT 3800 -SN VV020 M01/M01 Q1020= 210830Z 2109/2118 11010G15KT 5000 -SN BKN006 TEMPO 2109/2116 1000 SN VV025 PROB40 2109/2116 SG BECMG 2109/2111 11014G22KT BECMG 2116/2118 9999 NSW BKN020 RMK MIL=
ESSP - Norrköping211050Z 11012KT 7000 -RASN SCT015 BKN035 M01/M03 Q1021 RWY 09 DRY SNOW 51-100 PCT 1 MM BA GOOD= 210830Z 2109/2118 11013KT 5000 -SN SCT010 BKN045 TEMPO 2109/2115 2000 SN VV008=
ESGJ - Jönköping211050Z 12006KT 3000 -SNRA BKN005 OVC011 M00/M00 Q1016 RWY 19 WET SNOW 51-100 PCT 1 MM FCT 0.68= AAA 211045Z 2110/2118 14010KT 9000 -SG BKN010 PROB40 2110/2115 1400 SN VV004 TEMPO 2115/2118 2000=
ESKN - Skavsta211050Z 13009KT 9999 SCT029 BKN055 M02/M03 Q1022 RWY 26 DRY SNOW 51-100 PCT 1 MM FCT 0.50= AAA 210623Z 2106/2206 10008KT 9999 BKN040 TEMPO 2106/2114 2000 -SN=
ESSV - Visby211050Z 10009KT CAVOK M00/M07 Q1022 RWY 21 CLEAR AND DRY 51-100 PCT FCT 0.85= RRY 210840Z 2109/2119 09006KT CAVOK PROB40 2109/2115 4000 -SN=
ESGG - Göteborg211050Z 26006KT 230V300 0200 R03/0375N R21/0450N FG VV002 05/05 Q1014 RWY 21 WET OR WATER PATCHES 51-100 PCT BA GOOD= AAC 210913Z 2109/2206 21007KT 0300 FG VV003 TEMPO 2109/2113 3000 RADZ BKN005 TEMPO 2113/2116 4000 BR BKN005 BECMG 2116/2118 9999 NSW BKN020=
FLEET STATUS
Flygplan Tid till service Tid till flygstopp Flygtid Landningar
Aircraft Time to service Time to stop Total time Landings
SE-FCEN/AN/A4 904.7 h393 st.
SE-IUD19.3 h24.3 h11 430.7 h22 829 st.
SE-KIT34.5 h44.5 h11 765.5 h22 582 st.
SE-KMH6.3 h16.3 h15 793.7 h59 229 st.
SE-LRLN/AN/A555.3 h963 st.
SE-MEB8.9 h13.9 h1 341.1 h4 070 st.
SE-SIMN/AN/A1 192.2 h85 st.
PPR
Ankomst Avgång Flygplan Namn Bränsle
Arrival Departure Aircraft Name Fuel
NOTAM
ESSL/LINKOPING/SAAB
<<< + (SNOWTAM 0073 A)ESSL B)02211008 C)11 F)4/4/4 G)1/1/1 H)5/5/5 N)4/3 R)4/3 T)APRON AND TWYS CONTAMINATED WITH 3 MM WET SNOW) REPORTED: 21 FEB 2019 10:08 - AERODROME CONTROL TOWER (TWR) HOURS OF OPS/SERVICE MON-FRI 0445-2200, SAT 0445-0545 1715-1815, SUN 0445-0545 1000-1115 1600-1850 2100-2200. FROM: 18 FEB 2019 00:00 TO: 24 FEB 2019 23:59 ES/B0304/19 - ATTENTION UNMANNED AIRCRAFT. ADDITION TO REGULATION TSFS 2017 110. THE LIMITATIONS IN REGULATION TSFS 2017 110 CHAPTER 3 PARAGRPH 3 APPLIES EVEN THOUGH THE AIRPORT IS CLOSED AND SAAB AND MALMEN CTR ARE NOT ESTABLISHED. FROM: 25 JAN 2019 06:48 TO: 24 APR 2019 07:00 EST ES/B0274/19 >>>
ESCF/LINKOPING/MALMEN
21 10:33:01 UTC 2019 FLIGHT PLANNING CENTRE AERONAUTICAL INFORMATION SERVICE PIB: AREA SERVICE TYPE: FULL PAGE: 1(13) VALIDITY (UTC): 21 FEB 2019 10:25 - 22 FEB 2019 14:54 IDENTIFIER: WWWESAAIFR ISSUED: 21 FEB 2019 10:25 UTC FLIGHT RULES: IFR HEIGHT LIMITS (LOWER/UPPER):000/999 CONTENTS: AERODROMES, EN-ROUTE, WARNINGS MESSAGETYPE: NOTAM INT, SNOWTAM, ASHTAM AERODROMES: ESOH ESMT ESUT ESGJ ESMQ ESOK ESNQ ESNK ESMK ESNX ESSD ESSU ESNG ESGG ESSL ESPA ESMS ESSP ESUP ESDF ESNS ESGR ESSA ESSB ESKN ESOW ESNN ESND ESIB ESST ESGT ESNU ESCM ESNV ESSV ESMX ESNZ ESTA ESOE ESNO FIR: ESAA LEGEND: PERM NOTAM are excluded after 90 days. + MESSAGE NOT OLDER THAN 3 DAYS - MESSAGE OLDER THAN 3 DAYS >>>> ESAA/SWEDEN FIR <<<< AERODROMES >>> ESOH/HAGFORS <<< NIL >>> ESMT/HALMSTAD <<< + (SNOWTAM 0088 A)ESMT B)02210400 C)01 F)2/2/2 G)XX/XX/XX H)5/5/5 N)2/GOOD R)2/GOOD T)RWY CONT 100 PERCENT) REPORTED: 21 FEB 2019 04:00 + AERODROME CONTROL TOWER (TWR) HOURS OF OPS/SERVICE TUE 0525-1810, WED 0525-1955, THU 0525-1810, FRI 0525-1735, SAT 0710-0740 1350-1425, SUN 1030-1100 1315-1430 1615-2015. FROM: 19 FEB 2019 00:00 TO: 24 FEB 2019 23:59 ES/B0480/19 - A/G FACILITY LIMITED ONLY 8,33 KHZ RADIO IS ALLOWED FROM: 08 FEB 2019 09:53 TO: 29 APR 2019 10:00 EST ES/B0384/19 - PAPI (3.25 DEG) NOT ALIGNED WITH RNP RWY 01. REF AD 2 ESMT 5-5 FROM: 01 FEB 2019 09:06 TO: PERM ES/B0338/19 - GRASS STRIP RWY 06/24 CLOSED FROM: 07 DEC 2018 13:44 TO: 07 MAR 2019 12:00 EST ES/B4145/18 >>> ESUT/HEMAVAN TARNABY <<< CONTINUES ON NEXT PAGE ISSUED: 21 FEB 2019 10:25 UTC PAGE: 2(13) + (SNOWTAM 0056 A)ESUT B)02210355 C)15 F)7/7/7 G)03/03/03 H)4/5/5 N)7/MEDIUM-GOOD R)7/MEDIUM T)TWY CONTAMINATION DEPTH 3MM. APRON CONTAMINATION DEPTH 5MM. RWY, TWY, APRON SANDED.) REPORTED: 21 FEB 2019 03:55 - AFIS HOURS OF OPS/SERVICE MON-WED 0430-0515 0930-1040 1500-1600 1930-2045, THU 0430-0515 0900-1110 1345-1450 1515-1600 1930-2045, FRI 0430-0515 0930-1040 1400-1445 1900-2010, SAT CLSD, SUN 0830-0915 1200-1310 1330-1415 1700-1810. FROM: 16 FEB 2019 00:00 TO: 30 MAR 2019 23:59 ES/C0213/19 >>> ESGJ/JONKOPING <<< + (SNOWTAM 1398 A)ESGJ B)02210739 C)01 E)35 F)5/5/5 G)1/1/1 H)5/5/5 J)40/5LR N)5/POOR R)5/POOR T)BA 48/43/45. TWY B CLOSED FOR ACFT.) REPORTED: 21 FEB 2019 07:39 + AERODROME CONTROL TOWER (TWR) HOURS OF OPS/SERVICE MON 0515-2359, TUE-THU 0000-0130 0515-2359, FRI 0000-0130 0515-2100, SAT CLSD, SUN 1845-1930 FROM: 19 FEB 2019 15:30 TO: 24 FEB 2019 23:59 ES/B0494/19 + AERODROME HOURS OF OPS/SERVICE MON-THU 0515-2030, FRI 0515-2100, SAT CLSD, SUN 1845-1930 FROM: 19 FEB 2019 15:32 TO: 24 FEB 2019 23:59 ES/B0495/19 >>> ESMQ/KALMAR <<< + (SNOWTAM 1021 A)ESMQ B)02210830 C)16 F)6/6/6 G)1/1/1 H)5/5/5 T)RWY CONT 100 PERCENT) REPORTED: 21 FEB 2019 08:30 - AERODROME CONTROL TOWER (TWR) HOURS OF OPS/SERVICE MON-THU 0500-2120, FRI 0500-2135, SAT 0630-1200 1600-1930, SUN 0615-2155 FROM: 04 FEB 2019 00:00 TO: 24 FEB 2019 23:59 ES/B0120/19 - MNM RVR FOR DEPARTING TRAFFIC IS 400M. FROM: 01 FEB 2019 09:00 TO: PERM ES/B0336/19 >>>